Terminal Aerodrome Forecast
Issued by NWS

Home | Current Version | Previous Version | Text Only | Print | Product List | Glossary On
Versions: 1 2 3 4 5 6 7 8 9 10 11 12 13 14 15 16 17 18
000
FTPQ31 PGUM 252128 RRA
TAFGRO
TAF
PGRO 252128Z 2521/2618 08009KT P6SM VCSH SCT020 SCT050 BKN130=

USA.gov is the U.S. government's official web portal to all federal, state and local government web resources and services.